Time;durP1;ratioP1;P1;durP2;ratioP2;P2;SDS_P1;SDS_P2;PMS_P1;PMS_P2;Temp;Humidity;BMP_temperature;BMP_pressure;BME280_temperature;BME280_humidity;BME280_pressure;Samples;Min_cycle;Max_cycle;Signal;HPM_P1;HPM_P2
2022/12/02 00:01:12;;;;;;;3.92;2.92;;;;;;;16.81;38.07;96733.41;5094290;28;20050;-36
2022/12/02 00:03:38;;;;;;;3.55;2.90;;;;;;;16.77;38.08;96732.09;5094480;28;20081;-36
2022/12/02 00:06:09;;;;;;;3.83;2.90;;;;;;;16.88;37.96;96732.34;5094311;28;20027;-37
2022/12/02 00:08:36;;;;;;;3.90;2.78;;;;;;;16.84;38.05;96732.50;5094180;28;20141;-35
2022/12/02 00:11:17;;;;;;;3.90;2.85;;;;;;;16.85;38.03;96736.78;5094136;28;20047;-35
2022/12/02 00:13:44;;;;;;;3.70;2.70;;;;;;;16.84;37.74;96735.25;5094337;28;20024;-36
2022/12/02 00:16:22;;;;;;;4.70;2.97;;;;;;;16.80;37.83;96729.19;5094384;28;20020;-36
2022/12/02 00:18:51;;;;;;;3.33;2.85;;;;;;;16.79;37.98;96726.91;5094129;28;20020;-36
2022/12/02 00:21:18;;;;;;;2.60;2.40;;;;;;;16.80;38.03;96728.44;5093996;28;20032;-35
2022/12/02 00:23:43;;;;;;;3.53;2.50;;;;;;;16.84;38.03;96726.28;5095242;28;20024;-35
2022/12/02 00:26:09;;;;;;;3.00;2.67;;;;;;;16.80;38.16;96731.94;5092942;28;20407;-34
2022/12/02 00:28:35;;;;;;;3.83;2.60;;;;;;;16.80;38.08;96729.19;5093850;28;20028;-34
2022/12/02 00:31:01;;;;;;;3.63;2.85;;;;;;;16.77;38.01;96721.88;5094080;28;20016;-33
2022/12/02 00:33:26;;;;;;;3.67;2.80;;;;;;;16.81;38.01;96736.16;5094142;28;20016;-33
2022/12/02 00:35:52;;;;;;;3.72;2.70;;;;;;;16.82;37.95;96740.41;5093630;28;20020;-35
2022/12/02 00:38:17;;;;;;;8.43;3.20;;;;;;;16.76;37.99;96728.59;5092571;28;20028;-37
2022/12/02 00:40:42;;;;;;;3.17;2.88;;;;;;;16.77;37.77;96738.31;5100537;28;20459;-34
2022/12/02 00:48:36;;;;;;;3.45;2.90;;;;;;;16.77;37.89;96735.59;5093785;28;20027;-35
2022/12/02 00:51:02;;;;;;;3.92;2.72;;;;;;;16.74;38.02;96741.97;5093568;28;20020;-34
2022/12/02 00:53:31;;;;;;;3.30;2.78;;;;;;;16.75;37.84;96740.75;5093715;28;20471;-33
2022/12/02 00:55:56;;;;;;;3.38;2.70;;;;;;;16.72;38.06;96747.13;5093321;28;20027;-34
2022/12/02 00:58:22;;;;;;;3.00;2.65;;;;;;;16.73;37.98;96740.44;5093630;28;20073;-33
2022/12/02 01:00:47;;;;;;;3.63;3.00;;;;;;;16.65;38.16;96731.03;5093175;28;20384;-34
2022/12/02 01:03:14;;;;;;;3.30;2.95;;;;;;;16.67;37.94;96733.31;5093819;28;20032;-33
2022/12/02 01:05:39;;;;;;;3.97;2.70;;;;;;;16.77;37.85;96730.09;5093750;28;20035;-33
2022/12/02 01:08:05;;;;;;;3.88;2.78;;;;;;;16.65;38.01;96728.31;5093750;28;20028;-33
2022/12/02 01:10:30;;;;;;;3.20;2.90;;;;;;;16.66;38.10;96731.81;5093548;28;20019;-33
2022/12/02 01:12:56;;;;;;;3.60;2.67;;;;;;;16.70;37.92;96732.38;5093432;28;20364;-33
2022/12/02 01:15:21;;;;;;;4.43;3.40;;;;;;;16.70;37.74;96738.63;5093385;28;20107;-34
2022/12/02 01:17:47;;;;;;;3.40;3.10;;;;;;;16.73;37.86;96734.22;5093238;28;20499;-33
2022/12/02 01:20:12;;;;;;;3.25;2.80;;;;;;;16.64;38.03;96740.47;5093309;28;20061;-33
2022/12/02 01:22:38;;;;;;;7.10;3.38;;;;;;;16.67;37.97;96747.00;5093169;28;20024;-34
2022/12/02 01:25:04;;;;;;;3.92;3.00;;;;;;;16.68;38.01;96751.28;5093307;28;20028;-34
2022/12/02 01:27:29;;;;;;;3.97;3.17;;;;;;;16.66;37.88;96748.22;5093266;28;20063;-33
2022/12/02 01:29:54;;;;;;;4.95;3.38;;;;;;;16.66;38.08;96749.00;5093171;28;20497;-33
2022/12/02 01:32:22;;;;;;;3.95;3.10;;;;;;;16.68;37.84;96745.78;5093163;28;20380;-33
2022/12/02 01:34:48;;;;;;;4.90;3.35;;;;;;;16.66;37.98;96756.44;5093505;28;20524;-33
2022/12/02 01:37:13;;;;;;;5.25;3.58;;;;;;;16.62;38.01;96751.13;5093119;28;20054;-34
2022/12/02 01:39:38;;;;;;;5.60;3.42;;;;;;;16.61;38.13;96757.78;5093149;28;20020;-35
2022/12/02 01:42:04;;;;;;;4.95;3.60;;;;;;;16.61;37.95;96749.56;5093094;28;20028;-33
2022/12/02 01:44:30;;;;;;;4.78;3.42;;;;;;;16.62;38.09;96756.59;5093125;28;20028;-34
2022/12/02 01:46:56;;;;;;;4.70;3.60;;;;;;;16.60;37.87;96750.78;5093150;28;20027;-33
2022/12/02 01:49:23;;;;;;;6.60;3.63;;;;;;;16.67;37.65;96749.75;5092996;28;20387;-33
2022/12/02 01:51:48;;;;;;;5.68;3.60;;;;;;;16.63;37.93;96744.41;5093076;28;20027;-34
2022/12/02 01:54:14;;;;;;;5.20;3.50;;;;;;;16.61;38.01;96763.25;5093077;28;20020;-33
2022/12/02 01:56:39;;;;;;;5.80;3.42;;;;;;;16.64;38.07;96754.16;5111464;28;20031;-34
2022/12/02 01:59:05;;;;;;;4.15;3.40;;;;;;;16.64;37.91;96756.91;5113326;28;20031;-33
2022/12/02 02:01:33;;;;;;;3.67;3.30;;;;;;;16.57;38.13;96757.16;5113106;28;20075;-36
2022/12/02 02:04:01;;;;;;;7.82;3.33;;;;;;;16.56;38.42;96763.13;5113261;28;20030;-33
2022/12/02 02:06:30;;;;;;;4.38;3.47;;;;;;;16.57;38.07;96759.16;5112169;28;20031;-34
2022/12/02 02:08:56;;;;;;;3.88;3.40;;;;;;;16.59;37.89;96757.47;5116347;28;20107;-34
2022/12/02 02:11:24;;;;;;;5.18;3.15;;;;;;;16.63;37.92;96758.13;5116959;28;20507;-34
2022/12/02 02:13:50;;;;;;;4.68;3.35;;;;;;;16.61;38.06;96762.50;5113421;28;20031;-35
2022/12/02 02:16:16;;;;;;;4.10;3.33;;;;;;;16.59;37.90;96762.94;5096468;28;20043;-33
2022/12/02 02:18:41;;;;;;;4.93;3.60;;;;;;;16.59;37.87;96771.16;5096412;28;20023;-33
2022/12/02 02:21:13;;;;;;;3.50;2.92;;;;;;;16.52;38.28;96761.28;5096554;28;20028;-33
2022/12/02 02:23:39;;;;;;;4.78;3.20;;;;;;;16.55;38.15;96765.09;5096130;28;20415;-33
2022/12/02 02:26:05;;;;;;;3.58;3.05;;;;;;;16.57;37.95;96757.16;5096378;28;20024;-34
2022/12/02 02:28:30;;;;;;;4.47;3.53;;;;;;;16.58;38.17;96750.47;5096196;28;20471;-33
2022/12/02 02:30:57;;;;;;;4.25;3.30;;;;;;;16.55;38.08;96745.94;5095958;28;20383;-35
2022/12/02 02:33:26;;;;;;;4.65;3.10;;;;;;;16.49;38.37;96747.75;5094899;28;20020;-36
2022/12/02 02:35:52;;;;;;;4.47;3.17;;;;;;;16.53;38.36;96753.84;5096011;28;20034;-33
2022/12/02 02:38:20;;;;;;;5.68;3.42;;;;;;;16.47;38.12;96755.66;5096078;28;20430;-33
2022/12/02 02:40:46;;;;;;;4.90;3.53;;;;;;;16.46;38.30;96751.41;5095796;28;20484;-33
2022/12/02 02:43:13;;;;;;;4.65;3.47;;;;;;;16.52;38.21;96755.81;5096072;28;20105;-35
2022/12/02 02:45:41;;;;;;;5.30;3.40;;;;;;;16.52;38.22;96749.56;5095834;28;20044;-34
2022/12/02 02:48:09;;;;;;;3.80;3.28;;;;;;;16.48;38.21;96751.69;5095911;28;20099;-33
2022/12/02 02:50:37;;;;;;;4.53;3.45;;;;;;;16.48;38.30;96759.91;5109047;28;20069;-34
2022/12/02 02:53:03;;;;;;;4.25;3.03;;;;;;;16.51;38.26;96762.50;5116298;28;20432;-34
2022/12/02 02:55:31;;;;;;;5.53;3.97;;;;;;;16.50;38.35;96750.03;5116020;28;20035;-34
2022/12/02 02:58:13;;;;;;;4.07;3.10;;;;;;;16.43;38.44;96746.84;5116399;28;20020;-34
2022/12/02 03:00:41;;;;;;;3.55;3.10;;;;;;;16.44;38.63;96745.63;5115272;28;20047;-33
2022/12/02 03:03:10;;;;;;;4.90;3.58;;;;;;;16.46;38.54;96745.91;5116001;28;20084;-33
2022/12/02 03:05:36;;;;;;;4.85;3.45;;;;;;;16.43;38.57;96746.84;5115869;28;20047;-34
2022/12/02 03:08:02;;;;;;;3.92;3.53;;;;;;;16.44;38.52;96738.16;5115858;28;20024;-35
2022/12/02 03:10:28;;;;;;;5.20;4.18;;;;;;;16.45;38.69;96752.59;5115769;28;20102;-32
2022/12/02 03:12:54;;;;;;;4.03;3.33;;;;;;;16.44;38.76;96746.38;5115902;28;20030;-36
2022/12/02 03:15:26;;;;;;;4.97;4.25;;;;;;;16.43;38.49;96744.13;5115648;28;20027;-34
2022/12/02 03:17:52;;;;;;;5.65;3.67;;;;;;;16.48;38.76;96755.19;5115623;28;20019;-33
2022/12/02 03:20:20;;;;;;;5.45;3.65;;;;;;;16.45;39.00;96755.34;5114279;28;20081;-33
2022/12/02 03:22:45;;;;;;;4.30;3.65;;;;;;;16.46;38.71;96754.13;5114141;28;20063;-34
2022/12/02 03:25:11;;;;;;;4.80;3.70;;;;;;;16.36;38.91;96758.09;5115566;28;20054;-34
2022/12/02 03:27:37;;;;;;;5.57;3.90;;;;;;;16.35;38.92;96751.09;5115671;28;20024;-34
2022/12/02 03:30:03;;;;;;;5.05;3.85;;;;;;;16.46;38.76;96745.91;5115393;28;20038;-36
2022/12/02 03:32:29;;;;;;;4.82;3.70;;;;;;;16.42;38.92;96750.81;5115213;28;20066;-35
2022/12/02 03:34:55;;;;;;;5.65;4.13;;;;;;;16.39;39.07;96757.19;5115173;28;20051;-33
2022/12/02 03:37:22;;;;;;;4.65;3.95;;;;;;;16.38;39.00;96752.94;5114810;28;20047;-39
2022/12/02 03:39:48;;;;;;;5.82;3.55;;;;;;;16.36;39.08;96758.09;5115295;28;20027;-35
2022/12/02 03:42:14;;;;;;;4.95;3.85;;;;;;;16.39;39.04;96759.91;5115202;28;20030;-34
2022/12/02 03:44:40;;;;;;;6.20;4.50;;;;;;;16.38;39.14;96750.19;5115143;28;20023;-33
2022/12/02 03:47:06;;;;;;;4.85;3.72;;;;;;;16.41;39.06;96754.75;5115135;28;20038;-33
2022/12/02 03:49:33;;;;;;;6.63;4.05;;;;;;;16.38;39.29;96744.72;5115032;28;20015;-33
2022/12/02 03:51:59;;;;;;;5.45;4.18;;;;;;;16.35;39.26;96746.38;5115014;27;20095;-35
2022/12/02 03:54:24;;;;;;;6.30;3.75;;;;;;;16.35;39.32;96740.91;5115015;28;20538;-33
2022/12/02 03:56:50;;;;;;;5.72;4.85;;;;;;;16.37;39.23;96745.94;5114767;28;20054;-34
2022/12/02 03:59:21;;;;;;;5.93;4.55;;;;;;;16.38;39.18;96747.44;5114843;28;20023;-34
2022/12/02 04:01:47;;;;;;;4.97;4.22;;;;;;;16.36;39.34;96747.16;5114638;28;20065;-33
2022/12/02 04:04:12;;;;;;;5.68;4.45;;;;;;;16.39;39.17;96740.75;5114567;28;20467;-33
2022/12/02 04:06:38;;;;;;;6.20;4.60;;;;;;;16.34;39.26;96749.56;5114818;28;20552;-34
2022/12/02 04:09:03;;;;;;;4.88;3.80;;;;;;;16.38;39.23;96731.78;5114870;28;20020;-33
2022/12/02 04:11:29;;;;;;;5.60;4.20;;;;;;;16.30;39.58;96748.97;5114455;28;20027;-34
2022/12/02 04:13:54;;;;;;;6.63;4.40;;;;;;;16.33;39.33;96737.09;5114546;28;20077;-33
2022/12/02 04:16:20;;;;;;;5.85;4.38;;;;;;;16.31;39.31;96734.84;5114560;28;20475;-33
2022/12/02 04:18:45;;;;;;;7.25;4.90;;;;;;;16.38;39.34;96736.50;5114474;28;20024;-34
2022/12/02 04:21:11;;;;;;;6.65;4.93;;;;;;;16.33;39.38;96729.66;5111580;28;20035;-34
2022/12/02 04:23:36;;;;;;;6.97;4.43;;;;;;;16.30;39.59;96725.13;5094117;28;20022;-34
2022/12/02 04:26:01;;;;;;;6.10;4.47;;;;;;;16.30;39.55;96724.34;5093855;28;20020;-35
2022/12/02 04:28:27;;;;;;;5.93;4.85;;;;;;;16.35;39.55;96723.72;5094109;28;20115;-35
2022/12/02 04:30:52;;;;;;;6.35;4.97;;;;;;;16.27;39.65;96734.22;5093787;28;20024;-33
2022/12/02 04:33:18;;;;;;;5.70;4.35;;;;;;;16.25;39.63;96733.16;5093882;28;20020;-33
2022/12/02 04:35:43;;;;;;;5.60;4.20;;;;;;;16.32;39.60;96719.91;5093967;28;20027;-33
2022/12/02 04:38:09;;;;;;;5.93;4.75;;;;;;;16.30;39.42;96732.56;5093908;28;20047;-33
2022/12/02 04:40:34;;;;;;;5.45;4.30;;;;;;;16.30;39.62;96733.31;5100005;28;20020;-33
2022/12/02 04:43:00;;;;;;;7.05;4.40;;;;;;;16.31;39.80;96728.59;5114164;28;20026;-33
2022/12/02 04:45:25;;;;;;;6.75;4.50;;;;;;;16.31;39.61;96721.16;5114086;28;20490;-33
2022/12/02 04:47:51;;;;;;;7.88;4.78;;;;;;;16.28;39.67;96715.84;5113940;28;20483;-33
2022/12/02 04:50:16;;;;;;;8.45;5.30;;;;;;;16.34;39.64;96714.00;5113995;27;20464;-33
2022/12/02 04:52:41;;;;;;;6.85;5.10;;;;;;;16.31;39.78;96712.19;5114077;28;20103;-33
2022/12/02 04:55:07;;;;;;;6.63;5.22;;;;;;;16.33;39.81;96715.19;5113998;28;20027;-34
2022/12/02 04:57:33;;;;;;;7.10;5.05;;;;;;;16.30;39.75;96719.63;5113872;28;20107;-33
2022/12/02 04:59:59;;;;;;;7.78;5.00;;;;;;;16.22;39.96;96726.63;5113636;28;20119;-33
2022/12/02 05:02:24;;;;;;;7.20;4.57;;;;;;;16.29;39.70;96723.59;5113974;28;20054;-33
2022/12/02 05:04:50;;;;;;;7.15;4.68;;;;;;;16.27;39.82;96733.47;5112772;28;20038;-33
2022/12/02 05:07:16;;;;;;;5.32;4.22;;;;;;;16.24;39.91;96735.13;5113722;28;20076;-33
2022/12/02 05:09:41;;;;;;;5.97;4.75;;;;;;;16.23;40.12;96727.38;5113764;28;20098;-33
2022/12/02 05:12:07;;;;;;;7.20;4.97;;;;;;;16.29;40.03;96726.31;5112497;28;20058;-34
2022/12/02 05:14:32;;;;;;;6.13;4.57;;;;;;;16.31;39.96;96734.09;5113753;28;20380;-33
2022/12/02 05:16:58;;;;;;;7.35;5.15;;;;;;;16.36;39.76;96727.97;5113709;28;20023;-34
2022/12/02 05:19:23;;;;;;;6.75;5.28;;;;;;;16.24;40.18;96729.66;5113656;28;20022;-35
2022/12/02 05:21:48;;;;;;;6.82;4.82;;;;;;;16.30;39.98;96732.56;5113498;28;20031;-34
2022/12/02 05:24:14;;;;;;;6.00;4.97;;;;;;;16.24;40.10;96734.38;5113828;28;20026;-34
2022/12/02 05:26:39;;;;;;;6.45;5.38;;;;;;;16.24;40.28;96739.84;5113502;28;20039;-34
2022/12/02 05:29:06;;;;;;;8.20;5.15;;;;;;;16.29;40.21;96733.78;5113551;28;20028;-34
2022/12/02 05:31:32;;;;;;;7.80;5.07;;;;;;;16.25;40.40;96724.94;5113786;28;20020;-35
2022/12/02 05:33:57;;;;;;;7.32;5.45;;;;;;;16.24;40.33;96737.09;5113613;28;20072;-33
2022/12/02 05:36:23;;;;;;;5.85;4.53;;;;;;;16.25;40.19;96735.91;5113480;28;20023;-34
2022/12/02 05:38:48;;;;;;;7.68;5.10;;;;;;;16.25;40.22;96728.44;5113509;28;20066;-35
2022/12/02 05:41:15;;;;;;;7.32;4.97;;;;;;;16.30;40.14;96732.56;5113153;28;20391;-34
2022/12/02 05:43:41;;;;;;;7.30;5.28;;;;;;;16.26;40.40;96737.41;5116595;28;20028;-34
2022/12/02 05:46:15;;;;;;;6.72;5.18;;;;;;;16.30;40.24;96740.78;5117162;28;20068;-33
2022/12/02 05:48:42;;;;;;;6.82;5.70;;;;;;;16.25;40.37;96735.91;5117693;28;20032;-34
2022/12/02 05:51:12;;;;;;;7.22;5.47;;;;;;;16.24;40.42;96740.59;5117378;28;20023;-33
2022/12/02 05:53:40;;;;;;;8.50;5.63;;;;;;;16.26;40.39;96748.38;5117422;28;20114;-34
2022/12/02 05:56:24;;;;;;;6.18;5.22;;;;;;;16.25;40.42;96746.84;5117190;28;20378;-33
2022/12/02 05:58:50;;;;;;;6.85;5.30;;;;;;;16.25;40.59;96744.09;5117208;28;20020;-33
2022/12/02 06:01:25;;;;;;;6.32;5.25;;;;;;;16.27;40.38;96739.69;5116922;28;20048;-33
2022/12/02 06:03:50;;;;;;;8.32;5.65;;;;;;;16.26;40.40;96731.94;5117128;28;20031;-34
2022/12/02 06:06:22;;;;;;;6.57;5.05;;;;;;;16.24;40.48;96739.84;5117098;27;20039;-34
2022/12/02 06:08:47;;;;;;;8.52;5.70;;;;;;;16.18;40.70;96734.22;5117332;27;20028;-35
2022/12/02 06:11:27;;;;;;;7.22;5.18;;;;;;;16.19;40.83;96737.72;5116992;27;20106;-33
2022/12/02 06:13:58;;;;;;;8.20;5.75;;;;;;;16.14;40.82;96742.59;5116480;28;20405;-33
2022/12/02 06:16:28;;;;;;;7.32;5.20;;;;;;;16.23;40.65;96732.84;5096170;28;20024;-34
2022/12/02 06:18:54;;;;;;;8.30;5.30;;;;;;;16.11;40.95;96731.78;5096295;28;20031;-33
2022/12/02 06:21:21;;;;;;;7.07;5.47;;;;;;;16.21;40.78;96736.03;5096292;28;20028;-33
2022/12/02 06:23:54;;;;;;;7.28;5.38;;;;;;;16.22;40.66;96742.28;5096229;28;20039;-33
2022/12/02 06:26:20;;;;;;;7.15;5.13;;;;;;;16.22;40.72;96739.53;5096408;28;20019;-33
2022/12/02 06:29:01;;;;;;;9.38;5.68;;;;;;;16.23;40.75;96738.31;5096128;28;20054;-33
2022/12/02 06:31:41;;;;;;;8.70;5.40;;;;;;;16.28;40.70;96746.69;5096291;28;20406;-34
2022/12/02 06:34:34;;;;;;;7.22;5.35;;;;;;;16.26;40.82;96746.38;5096313;28;20032;-34
2022/12/02 06:37:08;;;;;;;7.13;5.28;;;;;;;16.26;40.87;96748.38;5096244;28;20052;-33
2022/12/02 06:39:34;;;;;;;7.72;5.43;;;;;;;16.27;40.73;96750.66;5096293;28;20050;-35
2022/12/02 06:42:07;;;;;;;8.20;5.65;;;;;;;16.25;40.81;96752.31;5094647;28;20456;-33
2022/12/02 06:47:52;;;;;;;10.98;6.65;;;;;;;16.26;40.70;96759.31;5116324;28;20030;-33
2022/12/02 06:50:52;;;;;;;8.45;6.00;;;;;;;16.28;40.82;96762.34;5083087;28;20035;-34
2022/12/02 06:53:40;;;;;;;7.82;5.32;;;;;;;16.20;41.02;96766.59;5114567;28;20035;-33
2022/12/02 06:56:14;;;;;;;10.15;5.55;;;;;;;16.20;41.12;96766.59;5116437;28;20104;-33
2022/12/02 06:58:50;;;;;;;9.20;6.57;;;;;;;16.19;41.31;96778.78;5116145;28;20049;-36
2022/12/02 07:01:30;;;;;;;9.85;6.22;;;;;;;16.20;41.01;96764.63;5115953;28;20051;-34
2022/12/02 07:04:07;;;;;;;8.23;6.10;;;;;;;16.23;41.08;96779.38;5115870;28;20483;-33
2022/12/02 07:06:36;;;;;;;10.40;6.22;;;;;;;16.25;40.89;96774.22;5115885;28;20365;-33
2022/12/02 07:09:16;;;;;;;10.88;6.10;;;;;;;16.21;41.02;96784.53;5113839;28;20516;-34
2022/12/02 07:11:54;;;;;;;8.80;5.90;;;;;;;16.25;40.79;96780.44;5092423;28;20027;-34
2022/12/02 07:14:33;;;;;;;8.50;5.72;;;;;;;16.26;40.87;96779.22;5088656;28;20353;-33
2022/12/02 07:17:27;;;;;;;8.27;5.97;;;;;;;16.19;41.20;96782.28;5089147;28;20498;-34
2022/12/02 07:20:04;;;;;;;9.30;5.93;;;;;;;16.20;41.06;96783.00;5088382;28;20035;-33
2022/12/02 07:22:36;;;;;;;12.70;5.82;;;;;;;16.23;40.87;96782.09;5088190;28;20101;-34
2022/12/02 07:25:07;;;;;;;7.28;5.65;;;;;;;16.09;41.28;96786.94;5088359;28;20033;-34
2022/12/02 07:27:37;;;;;;;10.05;6.40;;;;;;;16.20;41.24;96777.53;5087846;28;20030;-37
2022/12/02 07:30:26;;;;;;;11.80;6.35;;;;;;;16.21;41.20;96782.56;5088545;28;20069;-34
2022/12/02 07:32:51;;;;;;;7.47;5.20;;;;;;;16.16;41.29;96783.94;5089262;28;20042;-34
2022/12/02 07:35:17;;;;;;;7.85;5.45;;;;;;;16.24;41.17;96786.38;5097473;28;20452;-34
2022/12/02 07:37:43;;;;;;;8.73;5.82;;;;;;;16.19;41.32;96787.00;5111910;28;20102;-33
2022/12/02 07:40:09;;;;;;;7.15;5.75;;;;;;;16.26;41.31;96792.16;5113198;28;20455;-34
2022/12/02 07:42:34;;;;;;;7.07;5.60;;;;;;;16.21;41.23;96798.97;5113179;28;20106;-35
2022/12/02 07:45:00;;;;;;;7.82;5.60;;;;;;;16.13;41.38;96793.03;5113235;28;20846;-34
2022/12/02 07:47:25;;;;;;;8.43;5.55;;;;;;;16.17;41.34;96793.66;5112834;28;20028;-34
2022/12/02 07:49:51;;;;;;;8.63;5.78;;;;;;;16.24;41.28;96795.34;5112770;28;20019;-34
2022/12/02 07:52:16;;;;;;;8.77;5.60;;;;;;;16.15;41.48;96801.56;5112843;28;20055;-36
2022/12/02 07:54:42;;;;;;;8.60;5.57;;;;;;;16.20;41.39;96799.44;5112948;28;20026;-34
2022/12/02 07:57:07;;;;;;;7.47;5.28;;;;;;;16.19;41.51;96806.91;5112685;28;20027;-36
2022/12/02 07:59:32;;;;;;;8.82;5.68;;;;;;;16.06;41.64;96801.56;5111833;28;20407;-34
2022/12/02 08:01:58;;;;;;;9.05;6.47;;;;;;;16.10;41.70;96804.13;5112074;28;20446;-34
2022/12/02 08:04:23;;;;;;;10.80;6.85;;;;;;;16.15;41.44;96804.31;5112196;27;20034;-33
2022/12/02 08:06:49;;;;;;;17.20;8.50;;;;;;;16.21;41.54;96806.44;5105593;28;20081;-33
2022/12/02 08:09:14;;;;;;;14.10;8.27;;;;;;;16.16;41.51;96822.25;5092082;28;20028;-34
2022/12/02 08:11:40;;;;;;;16.60;9.18;;;;;;;16.14;41.46;96812.97;5090939;28;20391;-35
2022/12/02 08:14:05;;;;;;;16.15;9.45;;;;;;;16.14;41.62;96815.69;5091817;28;20460;-33
2022/12/02 08:16:31;;;;;;;16.52;9.35;;;;;;;16.14;41.71;96815.69;5093252;28;20038;-33
2022/12/02 08:18:57;;;;;;;19.20;9.63;;;;;;;16.04;41.95;96814.94;5090325;28;20454;-34
2022/12/02 08:21:22;;;;;;;14.15;9.48;;;;;;;16.14;41.79;96816.47;5100291;28;20034;-34
2022/12/02 08:23:48;;;;;;;17.92;10.23;;;;;;;16.12;41.82;96820.84;5112087;28;20387;-35
2022/12/02 08:26:13;;;;;;;16.67;9.88;;;;;;;16.23;41.49;96823.16;5111619;28;20030;-34
2022/12/02 08:28:39;;;;;;;17.35;9.25;;;;;;;16.23;41.64;96818.44;5112519;28;20403;-36
2022/12/02 08:31:04;;;;;;;16.23;9.07;;;;;;;16.11;41.54;96825.56;5112102;28;20073;-35
2022/12/02 08:33:30;;;;;;;14.00;8.10;;;;;;;16.08;41.91;96820.22;5112146;28;20069;-34
2022/12/02 08:35:55;;;;;;;14.77;9.00;;;;;;;16.06;42.12;96823.44;5112032;28;20031;-36
2022/12/02 08:38:21;;;;;;;14.68;9.07;;;;;;;16.05;41.95;96826.63;5112508;28;20052;-35
2022/12/02 08:40:46;;;;;;;16.38;8.85;;;;;;;16.07;41.98;96824.94;5111515;28;20486;-33
2022/12/02 08:43:12;;;;;;;11.77;8.07;;;;;;;16.01;42.06;96829.50;5111974;28;20403;-33
2022/12/02 08:45:37;;;;;;;12.90;7.88;;;;;;;16.07;42.07;96827.69;5112069;28;20024;-33
2022/12/02 08:48:03;;;;;;;12.73;8.57;;;;;;;16.10;41.98;96832.25;5111933;28;20088;-34
2022/12/02 08:50:29;;;;;;;11.80;7.72;;;;;;;16.09;42.02;96833.47;5111288;28;20035;-34
2022/12/02 08:52:54;;;;;;;13.40;7.97;;;;;;;16.12;41.99;96832.56;5112034;28;20038;-35
2022/12/02 08:55:20;;;;;;;13.48;9.10;;;;;;;16.10;42.07;96834.22;5097594;28;20036;-33
2022/12/02 08:57:46;;;;;;;14.13;8.75;;;;;;;16.02;42.11;96835.75;5091538;28;20028;-33
2022/12/02 09:00:12;;;;;;;13.70;8.57;;;;;;;16.10;42.23;96829.53;5090967;28;20040;-33
2022/12/02 09:02:37;;;;;;;13.30;8.70;;;;;;;16.15;41.89;96837.13;5091577;28;20035;-33
2022/12/02 09:05:03;;;;;;;12.70;8.52;;;;;;;16.17;41.85;96837.44;5091441;28;20036;-35
2022/12/02 09:07:29;;;;;;;13.98;9.07;;;;;;;16.19;41.78;96836.25;5091094;28;20024;-35
2022/12/02 09:09:54;;;;;;;15.82;8.75;;;;;;;16.23;41.78;96831.38;5090989;28;20039;-33
2022/12/02 09:12:21;;;;;;;10.52;7.65;;;;;;;16.14;41.98;96834.84;5090714;28;20046;-34
2022/12/02 09:14:46;;;;;;;13.20;7.90;;;;;;;16.16;41.99;96835.94;5091300;28;20028;-35
2022/12/02 09:17:12;;;;;;;13.30;8.38;;;;;;;15.65;42.88;96832.88;5099074;28;20027;-33
2022/12/02 09:19:37;;;;;;;13.18;7.82;;;;;;;14.88;45.40;96834.53;5116464;28;20030;-37
2022/12/02 09:22:03;;;;;;;12.15;7.93;;;;;;;15.37;44.40;96837.44;5117191;28;20042;-35
2022/12/02 09:24:29;;;;;;;9.77;7.40;;;;;;;15.71;43.74;96841.25;5117281;28;20019;-37
2022/12/02 09:26:54;;;;;;;12.30;7.10;;;;;;;15.87;43.15;96838.28;5117791;28;20428;-36
2022/12/02 09:29:20;;;;;;;15.82;7.38;;;;;;;15.85;43.36;96824.28;5117092;28;20038;-35
2022/12/02 09:31:45;;;;;;;11.25;7.65;;;;;;;15.96;42.83;96838.28;5117754;28;20019;-33
2022/12/02 09:34:11;;;;;;;9.18;6.78;;;;;;;16.05;42.77;96840.31;5117977;28;20429;-34
2022/12/02 09:36:36;;;;;;;10.90;7.25;;;;;;;16.07;42.55;96846.09;5117691;28;20106;-34
2022/12/02 09:39:02;;;;;;;11.25;6.78;;;;;;;16.07;42.56;96846.09;5117601;28;20026;-36
2022/12/02 09:41:27;;;;;;;10.90;6.90;;;;;;;16.13;42.22;96839.56;5117369;28;20433;-34
2022/12/02 09:43:53;;;;;;;10.55;6.03;;;;;;;16.05;42.49;96845.78;5117625;27;20023;-37
2022/12/02 09:46:19;;;;;;;9.52;6.22;;;;;;;16.09;42.45;96843.66;5117735;28;20031;-35
2022/12/02 09:48:45;;;;;;;9.57;6.35;;;;;;;16.04;42.55;96842.28;5117697;28;20031;-35
2022/12/02 09:51:11;;;;;;;8.38;6.35;;;;;;;16.06;42.62;96839.09;5117540;28;20471;-35
2022/12/02 09:53:39;;;;;;;8.43;6.72;;;;;;;16.07;42.54;96846.09;5116056;28;20024;-36
2022/12/02 09:56:09;;;;;;;10.73;6.63;;;;;;;16.07;42.51;96841.34;5115966;28;20030;-35
2022/12/02 09:58:36;;;;;;;9.40;6.63;;;;;;;16.12;42.36;96848.22;5114353;28;20024;-35
2022/12/02 10:01:02;;;;;;;9.13;6.22;;;;;;;16.07;42.66;96841.34;5115430;28;20047;-35
2022/12/02 10:03:28;;;;;;;7.72;6.22;;;;;;;16.05;42.92;96841.06;5116995;28;20110;-36
2022/12/02 10:05:54;;;;;;;9.90;6.72;;;;;;;16.13;42.20;96845.03;5115916;28;20466;-36
2022/12/02 10:08:26;;;;;;;8.18;6.28;;;;;;;16.07;42.61;96841.34;5115927;28;20028;-36
2022/12/02 10:10:55;;;;;;;8.95;6.60;;;;;;;16.07;42.56;96841.34;5117014;27;20028;-36
2022/12/02 10:13:23;;;;;;;8.05;6.13;;;;;;;16.12;42.48;96842.75;5117127;28;20031;-35
2022/12/02 10:15:49;;;;;;;8.63;6.28;;;;;;;16.12;42.43;96840.00;5117089;28;20023;-37
2022/12/02 10:18:24;;;;;;;9.70;6.85;;;;;;;16.07;42.66;96841.34;5117063;28;20030;-36
2022/12/02 10:20:50;;;;;;;7.60;6.10;;;;;;;16.09;42.58;96838.19;5116678;28;20490;-36
2022/12/02 10:23:23;;;;;;;8.18;6.40;;;;;;;16.09;42.78;96838.94;5116778;28;20028;-35
2022/12/02 10:25:57;;;;;;;;;;;;;;;16.08;42.64;96834.69;5117382;28;20030;-35
2022/12/02 10:28:29;;;;;;;8.82;6.38;;;;;;;16.11;42.74;96828.31;5116234;27;19914;-35
2022/12/02 10:31:08;;;;;;;8.52;6.28;;;;;;;16.10;42.83;96834.22;5116792;28;20474;-35
2022/12/02 10:33:37;;;;;;;10.32;6.22;;;;;;;16.06;42.72;96831.66;5116120;28;20028;-37
2022/12/02 10:36:04;;;;;;;9.43;6.30;;;;;;;16.06;42.79;96828.91;5116265;28;20448;-39
2022/12/02 10:38:35;;;;;;;9.23;6.57;;;;;;;16.07;42.89;96829.69;5116490;28;20034;-35
2022/12/02 10:41:13;;;;;;;10.80;7.13;;;;;;;16.12;42.69;96824.34;5116723;28;20036;-37
2022/12/02 10:43:39;;;;;;;9.27;6.60;;;;;;;16.11;42.68;96824.81;5116447;28;20019;-37
2022/12/02 10:46:04;;;;;;;9.52;6.97;;;;;;;16.10;42.66;96821.31;5116418;27;20470;-35
2022/12/02 10:48:30;;;;;;;9.23;6.38;;;;;;;16.06;42.96;96823.44;5116589;28;20032;-36
2022/12/02 10:50:55;;;;;;;8.85;6.53;;;;;;;16.11;42.79;96820.09;5116192;28;20345;-35
2022/12/02 10:53:26;;;;;;;9.20;6.82;;;;;;;16.10;42.80;96821.31;5114776;28;20027;-37
2022/12/02 10:55:53;;;;;;;11.20;7.95;;;;;;;16.04;42.92;96809.47;5116227;28;20029;-38
2022/12/02 10:58:30;;;;;;;10.90;7.45;;;;;;;16.17;42.59;96817.53;5116122;28;20379;-35
2022/12/02 11:00:57;;;;;;;9.02;7.18;;;;;;;15.96;43.24;96810.94;5114591;28;20042;-37
2022/12/02 11:03:24;;;;;;;10.32;7.47;;;;;;;15.99;43.19;96812.00;5116137;28;20035;-39
2022/12/02 11:05:51;;;;;;;10.35;7.97;;;;;;;16.07;43.06;96808.53;5115794;28;20020;-37
2022/12/02 11:08:28;;;;;;;11.13;7.80;;;;;;;16.08;43.24;96814.75;5116074;28;20034;-35
2022/12/02 11:11:15;;;;;;;10.00;7.82;;;;;;;16.12;42.85;96802.47;5114463;28;20019;-37
2022/12/02 11:13:54;;;;;;;11.82;7.38;;;;;;;16.09;43.01;96806.09;5115694;28;20091;-36
2022/12/02 11:16:25;;;;;;;9.75;7.38;;;;;;;16.09;42.91;96805.34;5113351;28;20030;-36
2022/12/02 11:19:45;;;;;;;9.40;7.40;;;;;;;16.11;42.93;96806.41;5091453;28;20114;-35
2022/12/02 11:22:47;;;;;;;9.05;6.88;;;;;;;16.09;43.08;96797.91;5061180;28;20080;-35
2022/12/02 11:25:46;;;;;;;10.38;6.85;;;;;;;16.10;43.20;96799.41;5093137;28;20054;-36
2022/12/02 11:28:33;;;;;;;9.50;7.18;;;;;;;16.09;43.21;96786.94;5091754;28;20426;-36
2022/12/02 11:31:11;;;;;;;10.63;7.70;;;;;;;16.05;43.47;96796.53;5093171;28;20032;-35
2022/12/02 11:34:01;;;;;;;10.10;7.50;;;;;;;16.08;43.25;96790.91;5091418;28;20497;-36
2022/12/02 11:36:31;;;;;;;9.55;7.15;;;;;;;16.10;43.14;96785.75;5093130;28;20059;-36
2022/12/02 11:38:57;;;;;;;11.57;7.70;;;;;;;16.09;43.46;96781.47;5093009;28;20361;-35
2022/12/02 11:41:24;;;;;;;10.07;7.18;;;;;;;16.08;43.38;96779.97;5091631;28;20026;-36
2022/12/02 11:43:59;;;;;;;10.50;7.55;;;;;;;16.10;43.38;96782.25;5092651;28;20468;-35
2022/12/02 11:46:42;;;;;;;12.20;8.27;;;;;;;16.08;43.53;96766.28;5092479;28;20379;-35